sensor_id;sensor_type;location;lat;lon;timestamp;pressure;altitude;pressure_sealevel;temperature;humidity
54122;BME280;40029;58.708;50.190;2022-09-16T00:01:36;99073.41;;;13.45;54.75
54122;BME280;40029;58.708;50.190;2022-09-16T00:04:07;99061.81;;;13.35;55.18
54122;BME280;40029;58.708;50.190;2022-09-16T00:06:38;99066.97;;;13.36;54.77
54122;BME280;40029;58.708;50.190;2022-09-16T00:09:09;99063.59;;;13.34;54.89
54122;BME280;40029;58.708;50.190;2022-09-16T00:11:40;99064.78;;;13.29;54.58
54122;BME280;40029;58.708;50.190;2022-09-16T00:14:11;99068.53;;;13.24;55.03
54122;BME280;40029;58.708;50.190;2022-09-16T00:16:42;99061.53;;;13.25;54.82
54122;BME280;40029;58.708;50.190;2022-09-16T00:19:13;99036.81;;;13.15;54.66
54122;BME280;40029;58.708;50.190;2022-09-16T00:21:46;99051.31;;;13.20;55.19
54122;BME280;40029;58.708;50.190;2022-09-16T00:24:17;99055.56;;;13.23;55.42
54122;BME280;40029;58.708;50.190;2022-09-16T00:26:48;99047.78;;;13.21;55.00
54122;BME280;40029;58.708;50.190;2022-09-16T00:29:19;99060.94;;;13.20;55.66
54122;BME280;40029;58.708;50.190;2022-09-16T00:31:50;99056.53;;;13.20;55.21
54122;BME280;40029;58.708;50.190;2022-09-16T00:34:21;99055.56;;;13.23;55.38
54122;BME280;40029;58.708;50.190;2022-09-16T00:36:52;99064.25;;;13.23;55.77
54122;BME280;40029;58.708;50.190;2022-09-16T00:39:23;99038.06;;;13.09;55.20
54122;BME280;40029;58.708;50.190;2022-09-16T00:41:55;99070.41;;;13.22;55.25
54122;BME280;40029;58.708;50.190;2022-09-16T00:47:39;99062.56;;;13.22;56.15
54122;BME280;40029;58.708;50.190;2022-09-16T00:52:51;99068.22;;;13.15;55.70
54122;BME280;40029;58.708;50.190;2022-09-16T00:55:26;99070.66;;;13.18;56.17
54122;BME280;40029;58.708;50.190;2022-09-16T00:58:03;99000.06;;;12.73;55.47
54122;BME280;40029;58.708;50.190;2022-09-16T01:00:35;99067.66;;;13.10;55.96
54122;BME280;40029;58.708;50.190;2022-09-16T01:03:07;99030.25;;;12.79;55.73
54122;BME280;40029;58.708;50.190;2022-09-16T01:05:38;99073.34;;;13.02;55.66
54122;BME280;40029;58.708;50.190;2022-09-16T01:08:10;99075.28;;;12.98;55.64
54122;BME280;40029;58.708;50.190;2022-09-16T01:10:41;99058.94;;;12.95;55.54
54122;BME280;40029;58.708;50.190;2022-09-16T01:13:13;99066.59;;;12.98;55.59
54122;BME280;40029;58.708;50.190;2022-09-16T01:15:57;99066.69;;;12.96;55.89
54122;BME280;40029;58.708;50.190;2022-09-16T01:18:51;99060.53;;;12.97;55.74
54122;BME280;40029;58.708;50.190;2022-09-16T01:21:43;99056.81;;;13.01;56.46
54122;BME280;40029;58.708;50.190;2022-09-16T01:32:59;99058.66;;;12.99;56.23
54122;BME280;40029;58.708;50.190;2022-09-16T01:47:37;99046.25;;;13.03;56.41
54122;BME280;40029;58.708;50.190;2022-09-16T02:04:12;99036.06;;;12.98;56.43
54122;BME280;40029;58.708;50.190;2022-09-16T02:06:48;99037.28;;;12.93;56.70
54122;BME280;40029;58.708;50.190;2022-09-16T02:09:26;99045.03;;;12.94;56.62
54122;BME280;40029;58.708;50.190;2022-09-16T02:12:03;99039.13;;;12.91;56.92
54122;BME280;40029;58.708;50.190;2022-09-16T02:14:41;99033.25;;;12.87;56.34
54122;BME280;40029;58.708;50.190;2022-09-16T02:17:16;99040.06;;;12.90;56.48
54122;BME280;40029;58.708;50.190;2022-09-16T02:19:59;99024.31;;;12.91;56.54
54122;BME280;40029;58.708;50.190;2022-09-16T02:22:38;98997.56;;;12.72;56.22
54122;BME280;40029;58.708;50.190;2022-09-16T02:25:12;99028.03;;;12.87;56.81
54122;BME280;40029;58.708;50.190;2022-09-16T02:27:46;99030.66;;;12.87;56.18
54122;BME280;40029;58.708;50.190;2022-09-16T02:30:20;99028.03;;;12.87;56.55
54122;BME280;40029;58.708;50.190;2022-09-16T02:33:04;99026.16;;;12.89;56.01
54122;BME280;40029;58.708;50.190;2022-09-16T02:35:38;99034.09;;;12.88;56.58
54122;BME280;40029;58.708;50.190;2022-09-16T02:38:16;99030.38;;;12.92;56.28
54122;BME280;40029;58.708;50.190;2022-09-16T02:40:55;99028.50;;;12.94;56.01
54122;BME280;40029;58.708;50.190;2022-09-16T02:43:27;99025.31;;;12.89;56.46
54122;BME280;40029;58.708;50.190;2022-09-16T02:51:57;99028.59;;;13.07;56.29
54122;BME280;40029;58.708;50.190;2022-09-16T02:54:35;99016.47;;;12.91;55.64
54122;BME280;40029;58.708;50.190;2022-09-16T02:57:09;99031.50;;;13.02;55.62
54122;BME280;40029;58.708;50.190;2022-09-16T02:59:40;99013.56;;;12.96;55.95
54122;BME280;40029;58.708;50.190;2022-09-16T03:02:12;99026.53;;;12.97;55.84
54122;BME280;40029;58.708;50.190;2022-09-16T03:04:44;99034.50;;;13.10;55.23
54122;BME280;40029;58.708;50.190;2022-09-16T03:07:16;99033.56;;;13.11;55.27
54122;BME280;40029;58.708;50.190;2022-09-16T03:09:48;99048.69;;;13.20;55.19
54122;BME280;40029;58.708;50.190;2022-09-16T03:18:20;99054.44;;;13.41;54.26
54122;BME280;40029;58.708;50.190;2022-09-16T03:34:34;99040.91;;;13.35;53.10
54122;BME280;40029;58.708;50.190;2022-09-16T03:37:09;99051.91;;;13.40;53.08
54122;BME280;40029;58.708;50.190;2022-09-16T03:39:48;99047.25;;;13.45;53.23
54122;BME280;40029;58.708;50.190;2022-09-16T03:42:20;99050.97;;;13.41;53.21
54122;BME280;40029;58.708;50.190;2022-09-16T03:44:52;99055.25;;;13.42;53.24
54122;BME280;40029;58.708;50.190;2022-09-16T03:47:23;99055.09;;;13.45;53.15
54122;BME280;40029;58.708;50.190;2022-09-16T03:49:54;99054.06;;;13.47;53.36
54122;BME280;40029;58.708;50.190;2022-09-16T03:52:25;99031.19;;;13.51;53.05
54122;BME280;40029;58.708;50.190;2022-09-16T03:54:56;99054.81;;;13.64;53.08
54122;BME280;40029;58.708;50.190;2022-09-16T03:57:27;99039.94;;;13.64;53.13
54122;BME280;40029;58.708;50.190;2022-09-16T04:00:00;99032.81;;;13.66;52.82
54122;BME280;40029;58.708;50.190;2022-09-16T04:02:31;99043.28;;;13.81;53.05
54122;BME280;40029;58.708;50.190;2022-09-16T04:05:02;99046.09;;;13.78;52.79
54122;BME280;40029;58.708;50.190;2022-09-16T04:07:34;99054.69;;;13.94;52.62
54122;BME280;40029;58.708;50.190;2022-09-16T04:10:05;99051.66;;;14.00;52.09
54122;BME280;40029;58.708;50.190;2022-09-16T04:12:36;99058.00;;;14.10;52.03
54122;BME280;40029;58.708;50.190;2022-09-16T04:15:08;99060.34;;;14.15;51.69
54122;BME280;40029;58.708;50.190;2022-09-16T04:17:39;99044.50;;;14.16;51.66
54122;BME280;40029;58.708;50.190;2022-09-16T04:20:10;99041.47;;;14.22;51.21
54122;BME280;40029;58.708;50.190;2022-09-16T04:22:41;99039.19;;;14.31;50.94
54122;BME280;40029;58.708;50.190;2022-09-16T04:25:12;99045.63;;;14.39;50.41
54122;BME280;40029;58.708;50.190;2022-09-16T04:27:43;99013.84;;;14.31;49.92
54122;BME280;40029;58.708;50.190;2022-09-16T04:30:14;99019.22;;;14.42;49.54
54122;BME280;40029;58.708;50.190;2022-09-16T04:32:45;99016.44;;;14.31;48.57
54122;BME280;40029;58.708;50.190;2022-09-16T14:16:25;99010.97;;;19.34;35.20
54122;BME280;40029;58.708;50.190;2022-09-16T14:22:04;99013.28;;;19.27;36.06
54122;BME280;40029;58.708;50.190;2022-09-16T14:24:40;99002.53;;;19.19;36.10
54122;BME280;40029;58.708;50.190;2022-09-16T14:29:58;99005.13;;;19.09;36.31
54122;BME280;40029;58.708;50.190;2022-09-16T14:32:32;99004.41;;;19.07;36.63
54122;BME280;40029;58.708;50.190;2022-09-16T14:35:22;99003.47;;;19.08;37.05
54122;BME280;40029;58.708;50.190;2022-09-16T14:37:59;99003.53;;;18.97;37.40
54122;BME280;40029;58.708;50.190;2022-09-16T14:40:37;99003.94;;;18.92;37.99
54122;BME280;40029;58.708;50.190;2022-09-16T14:43:14;99010.22;;;19.01;37.77
54122;BME280;40029;58.708;50.190;2022-09-16T14:45:52;98988.28;;;18.80;38.24
54122;BME280;40029;58.708;50.190;2022-09-16T14:48:29;99013.91;;;18.89;38.33
54122;BME280;40029;58.708;50.190;2022-09-16T14:51:02;99013.59;;;18.50;39.38
54122;BME280;40029;58.708;50.190;2022-09-16T14:53:39;99002.44;;;18.26;39.75
54122;BME280;40029;58.708;50.190;2022-09-16T14:56:17;99025.69;;;18.32;40.70
54122;BME280;40029;58.708;50.190;2022-09-16T14:58:51;99034.59;;;18.19;41.09
54122;BME280;40029;58.708;50.190;2022-09-16T15:01:26;99036.63;;;18.16;41.23
54122;BME280;40029;58.708;50.190;2022-09-16T15:04:08;98975.97;;;17.72;41.54
54122;BME280;40029;58.708;50.190;2022-09-16T15:06:46;99035.81;;;18.04;41.72
54122;BME280;40029;58.708;50.190;2022-09-16T15:09:26;99030.31;;;17.96;42.44
54122;BME280;40029;58.708;50.190;2022-09-16T15:12:02;99032.72;;;17.88;42.26
54122;BME280;40029;58.708;50.190;2022-09-16T15:14:37;99004.94;;;17.72;42.61
54122;BME280;40029;58.708;50.190;2022-09-16T15:17:08;99043.03;;;17.80;42.48
54122;BME280;40029;58.708;50.190;2022-09-16T15:19:40;99045.94;;;17.77;43.43
54122;BME280;40029;58.708;50.190;2022-09-16T15:22:13;99019.81;;;17.51;43.54
54122;BME280;40029;58.708;50.190;2022-09-16T15:24:46;99050.19;;;17.66;43.77
54122;BME280;40029;58.708;50.190;2022-09-16T15:27:20;99049.28;;;17.79;44.06
54122;BME280;40029;58.708;50.190;2022-09-16T15:30:23;99044.69;;;17.69;44.26
54122;BME280;40029;58.708;50.190;2022-09-16T15:32:55;99021.13;;;17.45;44.26
54122;BME280;40029;58.708;50.190;2022-09-16T15:35:27;99042.41;;;17.54;44.38
54122;BME280;40029;58.708;50.190;2022-09-16T15:38:10;98981.75;;;17.21;44.88
54122;BME280;40029;58.708;50.190;2022-09-16T15:40:42;99042.91;;;17.47;44.88
54122;BME280;40029;58.708;50.190;2022-09-16T15:43:14;99046.63;;;17.45;44.83
54122;BME280;40029;58.708;50.190;2022-09-16T15:45:57;99006.53;;;17.30;44.89
54122;BME280;40029;58.708;50.190;2022-09-16T15:48:42;99032.97;;;17.40;45.29
54122;BME280;40029;58.708;50.190;2022-09-16T15:51:35;99042.66;;;17.39;45.63
54122;BME280;40029;58.708;50.190;2022-09-16T15:54:45;99046.63;;;17.34;45.81
54122;BME280;40029;58.708;50.190;2022-09-16T15:57:40;99008.28;;;17.07;46.56
54122;BME280;40029;58.708;50.190;2022-09-16T16:00:12;99042.53;;;17.18;46.51
54122;BME280;40029;58.708;50.190;2022-09-16T16:02:55;99038.72;;;17.22;46.74
54122;BME280;40029;58.708;50.190;2022-09-16T16:05:28;99041.47;;;17.21;46.71
54122;BME280;40029;58.708;50.190;2022-09-16T16:08:02;99040.63;;;17.20;46.36
54122;BME280;40029;58.708;50.190;2022-09-16T16:10:33;99019.31;;;17.01;46.50
54122;BME280;40029;58.708;50.190;2022-09-16T16:13:07;99039.28;;;17.15;46.72
54122;BME280;40029;58.708;50.190;2022-09-16T16:15:39;99046.56;;;17.11;46.64
54122;BME280;40029;58.708;50.190;2022-09-16T16:18:11;99045.13;;;17.07;47.16
54122;BME280;40029;58.708;50.190;2022-09-16T16:20:42;99042.50;;;17.07;46.58
54122;BME280;40029;58.708;50.190;2022-09-16T16:23:13;99041.06;;;17.03;47.08
54122;BME280;40029;58.708;50.190;2022-09-16T16:25:44;99040.34;;;17.01;47.37
54122;BME280;40029;58.708;50.190;2022-09-16T16:28:15;99046.56;;;17.00;47.62
54122;BME280;40029;58.708;50.190;2022-09-16T16:30:46;99011.38;;;16.79;47.66
54122;BME280;40029;58.708;50.190;2022-09-16T16:33:17;99025.50;;;16.89;47.34
54122;BME280;40029;58.708;50.190;2022-09-16T16:35:48;99034.84;;;16.93;47.97
54122;BME280;40029;58.708;50.190;2022-09-16T16:38:19;99034.13;;;16.91;48.06
54122;BME280;40029;58.708;50.190;2022-09-16T16:40:50;98993.72;;;16.68;47.94
54122;BME280;40029;58.708;50.190;2022-09-16T16:43:22;99029.31;;;16.85;48.27
54122;BME280;40029;58.708;50.190;2022-09-16T16:45:56;99033.38;;;16.89;48.25
54122;BME280;40029;58.708;50.190;2022-09-16T16:48:28;99025.13;;;16.82;48.34
54122;BME280;40029;58.708;50.190;2022-09-16T16:51:03;99029.53;;;16.82;48.63
54122;BME280;40029;58.708;50.190;2022-09-16T16:53:35;99025.22;;;16.81;48.78
54122;BME280;40029;58.708;50.190;2022-09-16T16:56:10;99024.19;;;16.83;48.67
54122;BME280;40029;58.708;50.190;2022-09-16T16:58:42;99013.47;;;16.73;48.57
54122;BME280;40029;58.708;50.190;2022-09-16T17:01:15;99026.06;;;16.81;48.39
54122;BME280;40029;58.708;50.190;2022-09-16T17:03:47;99022.81;;;16.78;48.54
54122;BME280;40029;58.708;50.190;2022-09-16T17:06:21;99020.63;;;16.71;48.52
54122;BME280;40029;58.708;50.190;2022-09-16T17:08:55;99032.00;;;16.72;49.03
54122;BME280;40029;58.708;50.190;2022-09-16T17:11:26;99026.25;;;16.67;48.87
54122;BME280;40029;58.708;50.190;2022-09-16T17:14:01;99026.47;;;16.64;49.39
54122;BME280;40029;58.708;50.190;2022-09-16T17:16:33;99027.56;;;16.61;49.32
54122;BME280;40029;58.708;50.190;2022-09-16T17:19:04;99012.44;;;16.52;49.24
54122;BME280;40029;58.708;50.190;2022-09-16T17:21:35;99028.72;;;16.57;49.57
54122;BME280;40029;58.708;50.190;2022-09-16T17:24:06;99026.75;;;16.48;49.16
54122;BME280;40029;58.708;50.190;2022-09-16T17:26:38;99030.34;;;16.47;49.69
54122;BME280;40029;58.708;50.190;2022-09-16T17:29:10;99022.09;;;16.40;49.41
54122;BME280;40029;58.708;50.190;2022-09-16T17:31:41;99033.66;;;16.38;49.50
54122;BME280;40029;58.708;50.190;2022-09-16T17:34:13;99034.72;;;16.35;49.67
54122;BME280;40029;58.708;50.190;2022-09-16T17:36:45;99037.94;;;16.28;49.96
54122;BME280;40029;58.708;50.190;2022-09-16T17:39:18;99025.34;;;16.20;50.58
54122;BME280;40029;58.708;50.190;2022-09-16T17:41:50;99029.00;;;16.17;50.54
54122;BME280;40029;58.708;50.190;2022-09-16T17:44:21;99018.91;;;16.00;50.84
54122;BME280;40029;58.708;50.190;2022-09-16T17:46:52;99010.19;;;15.99;50.99
54122;BME280;40029;58.708;50.190;2022-09-16T17:49:23;98990.16;;;15.86;51.15
54122;BME280;40029;58.708;50.190;2022-09-16T17:51:54;99003.78;;;15.91;51.04
54122;BME280;40029;58.708;50.190;2022-09-16T17:54:25;99027.41;;;16.04;51.24
54122;BME280;40029;58.708;50.190;2022-09-16T17:56:56;99030.84;;;16.04;51.07
54122;BME280;40029;58.708;50.190;2022-09-16T17:59:27;99024.16;;;16.00;51.48
54122;BME280;40029;58.708;50.190;2022-09-16T18:01:58;98978.88;;;15.72;51.26
54122;BME280;40029;58.708;50.190;2022-09-16T18:04:29;99028.13;;;16.06;51.34
54122;BME280;40029;58.708;50.190;2022-09-16T18:07:01;99028.97;;;16.06;51.63
54122;BME280;40029;58.708;50.190;2022-09-16T18:09:32;99022.97;;;16.04;51.71
54122;BME280;40029;58.708;50.190;2022-09-16T18:12:03;99022.97;;;16.04;51.55
54122;BME280;40029;58.708;50.190;2022-09-16T18:14:34;98983.66;;;15.79;51.70
54122;BME280;40029;58.708;50.190;2022-09-16T18:17:05;99024.16;;;16.00;51.87
54122;BME280;40029;58.708;50.190;2022-09-16T18:19:36;99020.81;;;15.98;52.13
54122;BME280;40029;58.708;50.190;2022-09-16T18:22:07;99015.66;;;15.96;52.29
54122;BME280;40029;58.708;50.190;2022-09-16T18:24:41;99007.47;;;15.88;52.17
54122;BME280;40029;58.708;50.190;2022-09-16T18:27:12;99017.56;;;15.94;52.08
54122;BME280;40029;58.708;50.190;2022-09-16T18:29:43;98970.69;;;15.64;52.04
54122;BME280;40029;58.708;50.190;2022-09-16T18:32:14;99013.34;;;15.92;52.29
54122;BME280;40029;58.708;50.190;2022-09-16T18:34:45;98997.88;;;15.76;52.40
54122;BME280;40029;58.708;50.190;2022-09-16T18:37:16;99009.50;;;15.85;52.60
54122;BME280;40029;58.708;50.190;2022-09-16T18:39:47;99002.78;;;15.81;52.40
54122;BME280;40029;58.708;50.190;2022-09-16T18:42:18;99001.84;;;15.82;52.88
54122;BME280;40029;58.708;50.190;2022-09-16T18:44:49;99004.66;;;15.79;52.80
54122;BME280;40029;58.708;50.190;2022-09-16T18:47:20;98998.28;;;15.70;53.01
54122;BME280;40029;58.708;50.190;2022-09-16T18:49:51;99003.66;;;15.68;52.88
54122;BME280;40029;58.708;50.190;2022-09-16T18:52:22;98997.78;;;15.65;53.07
54122;BME280;40029;58.708;50.190;2022-09-16T18:54:53;99004.16;;;15.61;53.13
54122;BME280;40029;58.708;50.190;2022-09-16T18:57:24;99003.66;;;15.56;53.53
54122;BME280;40029;58.708;50.190;2022-09-16T18:59:55;99002.09;;;15.53;53.36
54122;BME280;40029;58.708;50.190;2022-09-16T19:02:26;98996.66;;;15.43;53.39
54122;BME280;40029;58.708;50.190;2022-09-16T19:04:57;98997.69;;;15.41;53.91
54122;BME280;40029;58.708;50.190;2022-09-16T19:07:28;99004.00;;;15.38;53.73
54122;BME280;40029;58.708;50.190;2022-09-16T19:09:59;99001.47;;;15.37;54.06
54122;BME280;40029;58.708;50.190;2022-09-16T19:12:31;99010.19;;;15.37;54.31
54122;BME280;40029;58.708;50.190;2022-09-16T19:15:02;99000.56;;;15.38;54.13
54122;BME280;40029;58.708;50.190;2022-09-16T19:17:34;98998.84;;;15.37;54.35
54122;BME280;40029;58.708;50.190;2022-09-16T19:20:05;98997.94;;;15.38;54.40
54122;BME280;40029;58.708;50.190;2022-09-16T19:22:36;99007.47;;;15.39;54.49
54122;BME280;40029;58.708;50.190;2022-09-16T19:25:07;98992.13;;;15.33;54.60
54122;BME280;40029;58.708;50.190;2022-09-16T19:27:39;98960.03;;;15.16;54.51
54122;BME280;40029;58.708;50.190;2022-09-16T19:30:10;99000.56;;;15.38;55.09
54122;BME280;40029;58.708;50.190;2022-09-16T19:32:41;99004.72;;;15.40;54.86
54122;BME280;40029;58.708;50.190;2022-09-16T19:35:12;99002.09;;;15.40;54.92
54122;BME280;40029;58.708;50.190;2022-09-16T19:37:45;98929.13;;;14.96;54.46
54122;BME280;40029;58.708;50.190;2022-09-16T19:40:16;98998.66;;;15.40;54.72
54122;BME280;40029;58.708;50.190;2022-09-16T19:42:47;99001.47;;;15.37;54.57
54122;BME280;40029;58.708;50.190;2022-09-16T19:45:18;98993.84;;;15.34;54.96
54122;BME280;40029;58.708;50.190;2022-09-16T19:47:49;98993.59;;;15.37;55.01
54122;BME280;40029;58.708;50.190;2022-09-16T19:50:20;98998.84;;;15.37;55.13
54122;BME280;40029;58.708;50.190;2022-09-16T19:52:51;98997.19;;;15.36;55.44
54122;BME280;40029;58.708;50.190;2022-09-16T19:55:22;98988.78;;;15.31;55.72
54122;BME280;40029;58.708;50.190;2022-09-16T19:57:53;98991.22;;;15.34;55.75
54122;BME280;40029;58.708;50.190;2022-09-16T20:00:24;98981.75;;;15.31;55.57
54122;BME280;40029;58.708;50.190;2022-09-16T20:02:56;98950.94;;;15.09;55.49
54122;BME280;40029;58.708;50.190;2022-09-16T20:05:27;98976.94;;;15.25;55.19
54122;BME280;40029;58.708;50.190;2022-09-16T20:07:59;98981.63;;;15.33;55.36
54122;BME280;40029;58.708;50.190;2022-09-16T20:10:31;98974.84;;;15.30;55.50
54122;BME280;40029;58.708;50.190;2022-09-16T20:13:02;98975.16;;;15.25;55.42
54122;BME280;40029;58.708;50.190;2022-09-16T20:15:33;98974.84;;;15.30;55.54
54122;BME280;40029;58.708;50.190;2022-09-16T20:18:04;98974.91;;;15.29;55.64
54122;BME280;40029;58.708;50.190;2022-09-16T20:20:35;98975.25;;;15.24;55.63
54122;BME280;40029;58.708;50.190;2022-09-16T20:23:06;98977.78;;;15.25;55.84
54122;BME280;40029;58.708;50.190;2022-09-16T20:25:37;98974.91;;;15.29;55.81
54122;BME280;40029;58.708;50.190;2022-09-16T20:28:08;98971.97;;;15.33;55.57
54122;BME280;40029;58.708;50.190;2022-09-16T20:30:39;98962.44;;;15.32;55.68
54122;BME280;40029;58.708;50.190;2022-09-16T20:33:10;98964.22;;;15.32;55.65
54122;BME280;40029;58.708;50.190;2022-09-16T20:35:41;98961.72;;;15.30;55.75
54122;BME280;40029;58.708;50.190;2022-09-16T20:38:12;98978.94;;;15.34;55.86
54122;BME280;40029;58.708;50.190;2022-09-16T20:40:44;98979.75;;;15.35;55.82
54122;BME280;40029;58.708;50.190;2022-09-16T20:43:15;98984.88;;;15.36;55.43
54122;BME280;40029;58.708;50.190;2022-09-16T20:45:47;98969.59;;;15.30;55.75
54122;BME280;40029;58.708;50.190;2022-09-16T20:48:18;98983.34;;;15.34;55.72
54122;BME280;40029;58.708;50.190;2022-09-16T20:50:49;98973.56;;;15.36;55.96
54122;BME280;40029;58.708;50.190;2022-09-16T20:53:20;98972.84;;;15.34;56.02
54122;BME280;40029;58.708;50.190;2022-09-16T20:55:51;98973.75;;;15.33;55.81
54122;BME280;40029;58.708;50.190;2022-09-16T20:58:22;98979.84;;;15.33;55.80
54122;BME280;40029;58.708;50.190;2022-09-16T21:00:53;98971.97;;;15.33;55.97
54122;BME280;40029;58.708;50.190;2022-09-16T21:03:24;98979.97;;;15.32;56.16
54122;BME280;40029;58.708;50.190;2022-09-16T21:06:00;98975.22;;;15.37;55.90
54122;BME280;40029;58.708;50.190;2022-09-16T21:08:32;98953.13;;;15.15;55.89
54122;BME280;40029;58.708;50.190;2022-09-16T21:11:06;98978.28;;;15.31;56.29
54122;BME280;40029;58.708;50.190;2022-09-16T21:13:39;98987.63;;;15.35;56.14
54122;BME280;40029;58.708;50.190;2022-09-16T21:16:14;98983.22;;;15.35;56.13
54122;BME280;40029;58.708;50.190;2022-09-16T21:18:45;98985.34;;;15.30;56.12
54122;BME280;40029;58.708;50.190;2022-09-16T21:21:18;98986.69;;;15.36;56.03
54122;BME280;40029;58.708;50.190;2022-09-16T21:23:51;98978.19;;;15.32;55.89
54122;BME280;40029;58.708;50.190;2022-09-16T21:28:56;98978.38;;;15.29;56.30
54122;BME280;40029;58.708;50.190;2022-09-16T21:31:31;98991.31;;;15.32;56.29
54122;BME280;40029;58.708;50.190;2022-09-16T21:34:03;98982.56;;;15.44;56.10
54122;BME280;40029;58.708;50.190;2022-09-16T21:36:35;98979.97;;;15.32;55.81
54122;BME280;40029;58.708;50.190;2022-09-16T21:39:09;98980.09;;;15.30;56.08
54122;BME280;40029;58.708;50.190;2022-09-16T21:41:41;98982.59;;;15.32;56.12
54122;BME280;40029;58.708;50.190;2022-09-16T21:44:13;98975.03;;;15.27;56.31
54122;BME280;40029;58.708;50.190;2022-09-16T21:46:45;98939.81;;;15.06;56.35
54122;BME280;40029;58.708;50.190;2022-09-16T21:49:18;98975.66;;;15.31;56.18
54122;BME280;40029;58.708;50.190;2022-09-16T21:51:55;98963.38;;;15.31;56.28
54122;BME280;40029;58.708;50.190;2022-09-16T21:54:27;98954.50;;;15.21;56.28
54122;BME280;40029;58.708;50.190;2022-09-16T21:57:00;98955.63;;;15.30;55.96
54122;BME280;40029;58.708;50.190;2022-09-16T21:59:31;98931.81;;;15.07;56.05
54122;BME280;40029;58.708;50.190;2022-09-16T22:02:02;98956.88;;;15.24;56.22
54122;BME280;40029;58.708;50.190;2022-09-16T22:04:33;98966.53;;;15.23;56.38
54122;BME280;40029;58.708;50.190;2022-09-16T22:07:04;98968.22;;;15.24;56.29
54122;BME280;40029;58.708;50.190;2022-09-16T22:09:36;98957.72;;;15.24;56.33
54122;BME280;40029;58.708;50.190;2022-09-16T22:12:06;98951.41;;;15.27;56.25
54122;BME280;40029;58.708;50.190;2022-09-16T22:14:37;98944.59;;;15.24;56.45
54122;BME280;40029;58.708;50.190;2022-09-16T22:17:08;98956.03;;;15.23;56.44
54122;BME280;40029;58.708;50.190;2022-09-16T22:19:39;98945.75;;;15.20;56.30
54122;BME280;40029;58.708;50.190;2022-09-16T22:22:10;98956.88;;;15.24;56.46
54122;BME280;40029;58.708;50.190;2022-09-16T22:24:41;98954.50;;;15.21;56.56
54122;BME280;40029;58.708;50.190;2022-09-16T22:27:12;98949.31;;;15.19;56.61
54122;BME280;40029;58.708;50.190;2022-09-16T22:29:43;98955.41;;;15.20;56.86
54122;BME280;40029;58.708;50.190;2022-09-16T22:32:14;98964.13;;;15.20;56.75
54122;BME280;40029;58.708;50.190;2022-09-16T22:34:45;98933.22;;;15.00;56.91
54122;BME280;40029;58.708;50.190;2022-09-16T22:37:16;98967.91;;;15.16;56.92
54122;BME280;40029;58.708;50.190;2022-09-16T22:39:47;98951.31;;;15.16;57.00
54122;BME280;40029;58.708;50.190;2022-09-16T22:42:18;98956.69;;;15.14;57.07
54122;BME280;40029;58.708;50.190;2022-09-16T22:44:49;98960.25;;;15.13;57.33
54122;BME280;40029;58.708;50.190;2022-09-16T22:47:20;98949.47;;;15.05;57.34
54122;BME280;40029;58.708;50.190;2022-09-16T22:49:51;98967.38;;;15.11;57.26
54122;BME280;40029;58.708;50.190;2022-09-16T22:52:23;98951.13;;;15.06;57.38
54122;BME280;40029;58.708;50.190;2022-09-16T22:54:54;98949.13;;;15.10;57.57
54122;BME280;40029;58.708;50.190;2022-09-16T22:57:25;98931.75;;;14.96;57.40
54122;BME280;40029;58.708;50.190;2022-09-16T22:59:56;98954.38;;;15.10;57.53
54122;BME280;40029;58.708;50.190;2022-09-16T23:02:27;98955.75;;;15.03;57.73
54122;BME280;40029;58.708;50.190;2022-09-16T23:04:58;98947.25;;;14.99;57.55
54122;BME280;40029;58.708;50.190;2022-09-16T23:07:29;98949.56;;;15.04;58.01
54122;BME280;40029;58.708;50.190;2022-09-16T23:10:00;98909.50;;;14.76;57.80
54122;BME280;40029;58.708;50.190;2022-09-16T23:12:34;98946.84;;;15.05;57.38
54122;BME280;40029;58.708;50.190;2022-09-16T23:15:05;98953.75;;;15.06;57.67
54122;BME280;40029;58.708;50.190;2022-09-16T23:17:39;98952.09;;;15.05;57.95
54122;BME280;40029;58.708;50.190;2022-09-16T23:20:10;98954.19;;;15.00;58.24
54122;BME280;40029;58.708;50.190;2022-09-16T23:22:41;98949.03;;;14.98;58.44
54122;BME280;40029;58.708;50.190;2022-09-16T23:25:12;98892.63;;;14.67;58.01
54122;BME280;40029;58.708;50.190;2022-09-16T23:27:43;98956.38;;;15.06;57.98
54122;BME280;40029;58.708;50.190;2022-09-16T23:30:14;98954.78;;;15.04;58.28
54122;BME280;40029;58.708;50.190;2022-09-16T23:32:46;98924.09;;;14.80;58.55
54122;BME280;40029;58.708;50.190;2022-09-16T23:35:17;98952.28;;;15.02;58.26
54122;BME280;40029;58.708;50.190;2022-09-16T23:37:48;98946.09;;;15.03;58.36
54122;BME280;40029;58.708;50.190;2022-09-16T23:40:19;98953.03;;;15.04;58.32
54122;BME280;40029;58.708;50.190;2022-09-16T23:42:50;98948.72;;;15.03;58.09
54122;BME280;40029;58.708;50.190;2022-09-16T23:45:21;98947.03;;;15.02;58.53
54122;BME280;40029;58.708;50.190;2022-09-16T23:47:52;98894.41;;;14.67;58.18
54122;BME280;40029;58.708;50.190;2022-09-16T23:50:23;98937.38;;;15.03;58.37
54122;BME280;40029;58.708;50.190;2022-09-16T23:52:54;98944.22;;;15.05;58.19
54122;BME280;40029;58.708;50.190;2022-09-16T23:55:26;98935.84;;;15.00;58.14
54122;BME280;40029;58.708;50.190;2022-09-16T23:57:57;98937.31;;;15.04;58.27
